Time;durP1;ratioP1;P1;durP2;ratioP2;P2;SDS_P1;SDS_P2;PMS_P1;PMS_P2;Temp;Humidity;BMP_temperature;BMP_pressure;BME280_temperature;BME280_humidity;BME280_pressure;Samples;Min_cycle;Max_cycle;Signal;HPM_P1;HPM_P2
2022/03/24 00:01:53;0.00;0.00;0.62;0.00;0.00;0.62;2.17;1.90;;;27.70;20.10;;;;;;2228221;62;20549;-58
2022/03/24 00:04:38;0.00;0.00;0.62;0.00;0.00;0.62;2.50;2.30;;;27.70;20.10;;;;;;2228456;62;20460;-59
2022/03/24 00:07:23;0.00;0.00;0.62;0.00;0.00;0.62;2.80;2.17;;;27.70;20.00;;;;;;2226720;62;20500;-59
2022/03/24 00:10:10;0.00;0.00;0.62;0.00;0.00;0.62;2.20;1.97;;;27.70;20.00;;;;;;2227912;62;20460;-57
2022/03/24 00:12:57;0.00;0.00;0.62;0.00;0.00;0.62;2.50;2.30;;;27.70;20.00;;;;;;2227880;62;20364;-57
2022/03/24 00:15:42;0.00;0.00;0.62;0.00;0.00;0.62;2.43;1.90;;;27.60;20.00;;;;;;2228270;62;20794;-59
2022/03/24 00:18:30;0.00;0.00;0.62;0.00;0.00;0.62;2.93;2.63;;;27.60;20.00;;;;;;2227780;62;20384;-59
2022/03/24 00:21:16;0.00;0.00;0.62;0.00;0.00;0.62;2.63;2.00;;;27.60;20.00;;;;;;2226764;62;20396;-58
2022/03/24 00:24:00;0.00;0.00;0.62;0.00;0.00;0.62;2.90;2.37;;;27.60;20.00;;;;;;2228286;62;20372;-52
2022/03/24 00:26:46;0.00;0.00;0.62;0.00;0.00;0.62;2.50;2.10;;;27.60;20.00;;;;;;2224482;62;20373;-58
2022/03/24 00:29:31;0.00;0.00;0.62;0.00;0.00;0.62;4.03;2.37;;;27.60;20.10;;;;;;2223445;62;20404;-55
2022/03/24 00:32:15;0.00;0.00;0.62;0.00;0.00;0.62;2.30;2.07;;;27.60;20.00;;;;;;2228458;62;20806;-60
2022/03/24 00:35:01;0.00;0.00;0.62;0.00;0.00;0.62;2.70;2.27;;;27.60;20.10;;;;;;2227500;62;20372;-59
2022/03/24 00:37:46;0.00;0.00;0.62;0.00;0.00;0.62;2.27;1.70;;;27.60;20.10;;;;;;2228172;62;20473;-58
2022/03/24 00:40:31;0.00;0.00;0.62;0.00;0.00;0.62;2.80;2.07;;;27.60;20.10;;;;;;2227999;62;20529;-57
2022/03/24 00:43:17;0.00;0.00;0.62;0.00;0.00;0.62;7.20;2.00;;;27.60;20.20;;;;;;2226370;62;20963;-58
2022/03/24 00:46:01;0.00;0.00;0.62;0.00;0.00;0.62;2.23;1.80;;;27.60;20.20;;;;;;2228066;62;20384;-56
2022/03/24 00:48:46;0.00;0.00;0.62;0.00;0.00;0.62;2.60;2.10;;;27.60;20.20;;;;;;2228045;62;20388;-56
2022/03/24 00:51:30;0.00;0.00;0.62;0.00;0.00;0.62;2.53;2.20;;;27.60;20.20;;;;;;2223706;62;20456;-54
2022/03/24 00:54:16;0.00;0.00;0.62;0.00;0.00;0.62;2.00;1.70;;;27.50;20.20;;;;;;2228213;62;20420;-57
2022/03/24 00:57:02;0.00;0.00;0.62;0.00;0.00;0.62;2.63;2.07;;;27.60;20.30;;;;;;2227652;62;20368;-56
2022/03/24 00:59:49;0.00;0.00;0.62;0.00;0.00;0.62;2.40;1.90;;;27.60;20.30;;;;;;2224337;62;20367;-58
2022/03/24 01:02:37;0.00;0.00;0.62;0.00;0.00;0.62;2.90;2.40;;;27.60;20.30;;;;;;2224925;62;20447;-56
2022/03/24 01:05:28;0.00;0.00;0.62;0.00;0.00;0.62;2.53;2.00;;;27.60;20.30;;;;;;2226246;62;20407;-57
2022/03/24 01:08:16;0.00;0.00;0.62;0.00;0.00;0.62;2.03;1.63;;;27.60;20.30;;;;;;2224718;62;20797;-54
2022/03/24 01:11:05;0.00;0.00;0.62;0.00;0.00;0.62;2.10;1.70;;;27.50;20.20;;;;;;2225048;62;20818;-58
2022/03/24 01:13:49;0.00;0.00;0.62;0.00;0.00;0.62;2.23;1.77;;;27.50;20.20;;;;;;2226680;62;20789;-58
2022/03/24 01:16:36;0.00;0.00;0.62;0.00;0.00;0.62;2.50;2.23;;;27.50;20.20;;;;;;2228012;62;20376;-59
2022/03/24 01:19:21;0.00;0.00;0.62;0.00;0.00;0.62;2.63;2.37;;;27.50;20.20;;;;;;2227734;62;20376;-60
2022/03/24 01:22:05;0.00;0.00;0.62;0.00;0.00;0.62;3.40;2.90;;;27.50;20.00;;;;;;2228044;62;20877;-61
2022/03/24 01:24:50;0.00;0.00;0.62;0.00;0.00;0.62;4.13;3.70;;;27.50;20.00;;;;;;2228297;62;20368;-61
2022/03/24 01:27:35;0.00;0.00;0.62;0.00;0.00;0.62;5.60;5.00;;;27.50;19.80;;;;;;2226418;62;20789;-60
2022/03/24 01:30:20;0.00;0.00;0.62;0.00;0.00;0.62;6.93;5.67;;;27.50;19.60;;;;;;2227997;62;20908;-62
2022/03/24 01:33:08;0.00;0.00;0.62;0.00;0.00;0.62;5.10;4.67;;;27.40;19.50;;;;;;2224945;62;20417;-61
2022/03/24 01:35:53;0.00;0.00;0.62;0.00;0.00;0.62;6.63;5.93;;;27.40;19.40;;;;;;2226548;62;20528;-60
2022/03/24 01:38:38;0.00;0.00;0.62;0.00;0.00;0.62;7.50;6.07;;;27.40;19.40;;;;;;2224696;62;20974;-61
2022/03/24 01:41:23;0.00;0.00;0.62;0.00;0.00;0.62;7.00;6.30;;;27.40;19.30;;;;;;2226867;62;20435;-61
2022/03/24 01:44:12;0.00;0.00;0.62;0.00;0.00;0.62;7.80;6.80;;;27.40;19.30;;;;;;2224079;62;20425;-61
2022/03/24 01:47:00;0.00;0.00;0.62;0.00;0.00;0.62;8.03;7.33;;;27.40;19.20;;;;;;2227797;62;20368;-59
2022/03/24 01:49:48;0.00;0.00;0.62;0.00;0.00;0.62;8.23;7.43;;;27.30;19.10;;;;;;2223172;62;20400;-61
2022/03/24 01:52:35;0.00;0.00;0.62;0.00;0.00;0.62;7.73;7.03;;;27.30;19.10;;;;;;2227794;62;20432;-60
2022/03/24 01:55:20;0.00;0.00;0.62;0.00;0.00;0.62;8.17;7.10;;;27.30;19.10;;;;;;2227735;62;20372;-61
2022/03/24 01:58:06;0.00;0.00;0.62;0.00;0.00;0.62;8.13;7.33;;;27.20;19.00;;;;;;2226256;62;20391;-61
2022/03/24 02:00:51;0.00;0.00;0.62;0.00;0.00;0.62;8.23;7.50;;;27.20;18.90;;;;;;2224809;62;20367;-61
2022/03/24 02:03:37;0.00;0.00;0.62;0.00;0.00;0.62;8.80;7.93;;;27.20;18.90;;;;;;2227612;62;20429;-60
2022/03/24 02:06:24;0.00;0.00;0.62;0.00;0.00;0.62;8.87;8.00;;;27.20;18.90;;;;;;2226601;62;20404;-60
2022/03/24 02:09:11;0.00;0.00;0.62;0.00;0.00;0.62;8.70;7.60;;;27.10;18.80;;;;;;2227421;62;20376;-61
2022/03/24 02:11:56;0.00;0.00;0.62;0.00;0.00;0.62;9.07;8.27;;;27.10;18.80;;;;;;2225888;62;20794;-62
2022/03/24 02:14:41;0.00;0.00;0.62;0.00;0.00;0.62;8.43;7.70;;;27.10;18.80;;;;;;2224841;62;21011;-61
2022/03/24 02:17:30;0.00;0.00;0.62;0.00;0.00;0.62;9.23;8.13;;;27.00;18.80;;;;;;2227396;62;20848;-61
2022/03/24 02:20:16;0.00;0.00;0.62;0.00;0.00;0.62;9.70;8.70;;;27.00;18.80;;;;;;2225767;62;20384;-61
2022/03/24 02:23:02;0.00;0.00;0.62;0.00;0.00;0.62;8.97;8.17;;;27.00;18.80;;;;;;2227503;62;20415;-62
2022/03/24 02:25:47;0.00;0.00;0.62;0.00;0.00;0.62;9.33;8.47;;;27.00;18.80;;;;;;2224187;62;20376;-60
2022/03/24 02:28:31;0.00;0.00;0.62;0.00;0.00;0.62;7.67;6.97;;;26.90;18.80;;;;;;2226757;62;20436;-62
2022/03/24 02:31:16;0.00;0.00;0.62;0.00;0.00;0.62;8.30;7.50;;;26.90;18.80;;;;;;2228016;62;20419;-63
2022/03/24 02:37:10;0.00;0.00;0.62;0.00;0.00;0.62;10.50;8.23;;;26.80;18.80;;;;;;2227883;62;20472;-61
2022/03/24 02:39:58;0.00;0.00;0.62;0.00;0.00;0.62;9.13;8.23;;;26.80;18.80;;;;;;2227663;62;20429;-61
2022/03/24 02:42:44;0.00;0.00;0.62;0.00;0.00;0.62;10.53;9.20;;;26.80;18.80;;;;;;2226315;62;20996;-61
2022/03/24 02:45:29;0.00;0.00;0.62;0.00;0.00;0.62;9.30;8.40;;;26.70;18.70;;;;;;2227880;62;20829;-61
2022/03/24 02:48:13;0.00;0.00;0.62;0.00;0.00;0.62;9.13;8.10;;;26.70;18.70;;;;;;2227112;62;20400;-61
2022/03/24 02:50:59;0.00;0.00;0.62;0.00;0.00;0.62;9.90;8.40;;;26.70;18.70;;;;;;2227919;62;20782;-61
2022/03/24 02:53:43;0.00;0.00;0.62;0.00;0.00;0.62;10.70;9.60;;;26.60;18.70;;;;;;2227665;62;20500;-60
2022/03/24 02:56:30;0.00;0.00;0.62;0.00;0.00;0.62;10.20;8.87;;;26.60;18.70;;;;;;2226306;62;20460;-62
2022/03/24 02:59:16;0.00;0.00;0.62;0.00;0.00;0.62;9.37;8.40;;;26.60;18.60;;;;;;2227651;62;20832;-62
2022/03/24 03:02:05;0.00;0.00;0.62;0.00;0.00;0.62;9.33;8.47;;;26.50;18.60;;;;;;2227725;62;20440;-62
2022/03/24 03:04:51;0.00;0.00;0.62;0.00;0.00;0.62;9.90;9.00;;;26.50;18.70;;;;;;2226596;62;20364;-61
2022/03/24 03:07:35;0.00;0.00;0.62;0.00;0.00;0.62;10.17;9.17;;;26.50;18.70;;;;;;2228323;62;20924;-61
2022/03/24 03:10:20;0.00;0.00;0.62;0.00;0.00;0.62;9.70;8.70;;;26.50;18.70;;;;;;2227991;62;20993;-62
2022/03/24 03:13:08;0.00;0.00;0.62;0.00;0.00;0.62;10.93;9.83;;;26.40;18.60;;;;;;2225253;62;20910;-62
2022/03/24 03:15:52;0.00;0.00;0.62;0.00;0.00;0.62;11.07;9.97;;;26.30;18.60;;;;;;2224618;62;20403;-61
2022/03/24 03:18:37;0.00;0.00;0.62;0.00;0.00;0.62;10.23;9.13;;;26.30;18.60;;;;;;2222805;62;20461;-61
2022/03/24 03:21:25;0.00;0.00;0.62;0.00;0.00;0.62;10.63;9.53;;;26.30;18.70;;;;;;2224474;62;20457;-59
2022/03/24 03:24:13;0.00;0.00;0.62;0.00;0.00;0.62;10.23;9.13;;;26.30;18.70;;;;;;2224565;62;20429;-63
2022/03/24 03:26:58;0.00;0.00;0.62;0.00;0.00;0.62;10.20;9.20;;;26.20;18.60;;;;;;2222794;62;20364;-61
2022/03/24 03:29:44;0.00;0.00;0.62;0.00;0.00;0.62;10.30;9.00;;;26.20;18.70;;;;;;2224674;62;20377;-61
2022/03/24 03:32:28;0.00;0.00;0.62;0.00;0.00;0.62;10.80;9.80;;;26.20;18.70;;;;;;2224136;62;20408;-63
2022/03/24 03:35:13;0.00;0.00;0.62;0.00;0.00;0.62;11.27;10.17;;;26.20;18.70;;;;;;2224068;62;20833;-62
2022/03/24 03:37:58;0.00;0.00;0.62;0.00;0.00;0.62;10.17;9.30;;;26.20;18.70;;;;;;2224305;62;20797;-63
2022/03/24 03:40:43;0.00;0.00;0.62;0.00;0.00;0.62;11.27;10.10;;;26.10;18.70;;;;;;2222963;62;21001;-60
2022/03/24 03:43:28;0.00;0.00;0.62;0.00;0.00;0.62;10.27;9.30;;;26.10;18.70;;;;;;2224771;62;20816;-63
2022/03/24 03:46:15;0.00;0.00;0.62;0.00;0.00;0.62;10.90;9.80;;;26.00;18.60;;;;;;2224878;62;21140;-61
2022/03/24 03:49:01;0.00;0.00;0.62;0.00;0.00;0.62;11.57;10.40;;;26.10;18.70;;;;;;2223124;62;20899;-61
2022/03/24 03:51:45;0.00;0.00;0.62;0.00;0.00;0.62;12.47;11.27;;;26.00;18.60;;;;;;2224880;62;20406;-60
2022/03/24 03:54:30;0.00;0.00;0.62;0.00;0.00;0.62;11.40;10.30;;;26.00;18.70;;;;;;2223599;62;20421;-62
2022/03/24 03:57:14;0.00;0.00;0.62;0.00;0.00;0.62;11.47;10.37;;;25.90;18.60;;;;;;2223235;62;20392;-62
2022/03/24 04:00:52;0.00;0.00;0.62;0.00;0.00;0.62;11.47;10.47;;;25.90;18.60;;;;;;2224507;62;20368;-62
2022/03/24 04:03:05;0.00;0.00;0.62;0.00;0.00;0.62;11.30;10.20;;;25.90;18.60;;;;;;2222645;62;20400;-61
2022/03/24 04:05:52;0.00;0.00;0.62;0.00;0.00;0.62;11.30;10.17;;;25.80;18.60;;;;;;2224264;62;20389;-60
2022/03/24 04:08:38;0.00;0.00;0.62;0.00;0.00;0.62;13.50;10.57;;;25.80;18.60;;;;;;2224292;62;20422;-61
2022/03/24 04:11:23;0.00;0.00;0.62;0.00;0.00;0.62;10.13;9.20;;;25.80;18.60;;;;;;2222916;62;20922;-60
2022/03/24 04:14:08;0.00;0.00;0.62;0.00;0.00;0.62;12.30;11.10;;;25.80;18.60;;;;;;2224136;62;20373;-61
2022/03/24 04:16:56;0.00;0.00;0.62;0.00;0.00;0.62;11.30;10.20;;;25.70;18.60;;;;;;2223821;62;20378;-60
2022/03/24 04:19:42;0.00;0.00;0.62;0.00;0.00;0.62;12.63;11.43;;;25.70;18.60;;;;;;2223621;62;20414;-61
2022/03/24 04:22:27;0.00;0.00;0.62;0.00;0.00;0.62;11.50;10.30;;;25.70;18.60;;;;;;2224382;62;20400;-61
2022/03/24 04:25:11;0.00;0.00;0.62;0.00;0.00;0.62;11.40;10.30;;;25.60;18.50;;;;;;2222783;62;20372;-60
2022/03/24 04:27:56;0.00;0.00;0.62;0.00;0.00;0.62;11.90;10.70;;;25.60;18.50;;;;;;2224105;62;20393;-60
2022/03/24 04:30:42;0.00;0.00;0.62;0.00;0.00;0.62;11.50;10.40;;;25.60;18.50;;;;;;2224363;62;20413;-60
2022/03/24 04:33:27;0.00;0.00;0.62;0.00;0.00;0.62;11.90;10.80;;;25.50;18.50;;;;;;2222804;62;20522;-61
2022/03/24 04:36:13;0.00;0.00;0.62;0.00;0.00;0.62;11.93;10.80;;;25.50;18.50;;;;;;2224353;62;20414;-61
2022/03/24 04:38:58;0.00;0.00;0.62;0.00;0.00;0.62;11.50;10.40;;;25.50;18.50;;;;;;2223528;62;20397;-60
2022/03/24 04:41:43;0.00;0.00;0.62;0.00;0.00;0.62;12.33;10.40;;;25.50;18.50;;;;;;2223229;62;20662;-60
2022/03/24 04:44:27;0.00;0.00;0.62;0.00;0.00;0.62;12.20;11.00;;;25.50;18.50;;;;;;2224210;62;20364;-62
2022/03/24 04:47:12;0.00;0.00;0.62;0.00;0.00;0.62;11.83;10.73;;;25.40;18.50;;;;;;2222390;62;20467;-61
2022/03/24 04:49:57;0.00;0.00;0.62;0.00;0.00;0.62;11.00;9.77;;;25.40;18.50;;;;;;2224338;62;20365;-61
2022/03/24 04:52:43;0.00;0.00;0.62;0.00;0.00;0.62;11.70;10.50;;;25.40;18.50;;;;;;2224415;62;20771;-62
2022/03/24 04:55:28;0.00;0.00;0.62;0.00;0.00;0.62;11.53;10.43;;;25.40;19.10;;;;;;2222706;62;20421;-61
2022/03/24 04:58:13;0.00;0.00;0.62;0.00;0.00;0.62;11.80;10.30;;;25.30;18.50;;;;;;2224110;62;20846;-62
2022/03/24 05:00:58;0.00;0.00;0.62;0.00;0.00;0.62;11.90;10.57;;;25.30;18.50;;;;;;2224170;62;20433;-59
2022/03/24 05:03:46;0.00;0.00;0.62;0.00;0.00;0.62;12.37;11.17;;;25.30;18.50;;;;;;2222876;62;20392;-61
2022/03/24 05:06:31;0.00;0.00;0.62;0.00;0.00;0.62;11.80;10.70;;;25.20;18.50;;;;;;2224143;62;21015;-59
2022/03/24 05:09:18;0.00;0.00;0.62;0.00;0.00;0.62;14.00;12.63;;;25.20;18.50;;;;;;2222634;62;20388;-62
2022/03/24 05:12:04;0.00;0.00;0.62;0.00;0.00;0.62;12.90;11.60;;;25.20;18.50;;;;;;2224065;62;20368;-59
2022/03/24 05:14:50;0.00;0.00;0.62;0.00;0.00;0.62;12.20;11.00;;;25.20;18.50;;;;;;2224328;62;20418;-60
2022/03/24 05:17:34;0.00;0.00;0.62;0.00;0.00;0.62;11.60;10.17;;;25.10;18.40;;;;;;2221954;62;20396;-57
2022/03/24 05:20:19;0.00;0.00;0.62;0.00;0.00;0.62;12.53;11.33;;;25.10;18.30;;;;;;2224326;62;20992;-58
2022/03/24 05:23:03;0.00;0.00;0.62;0.00;0.00;0.62;12.60;11.40;;;25.10;18.20;;;;;;2224108;62;20413;-60
2022/03/24 05:25:49;0.00;0.00;0.62;0.00;0.00;0.62;12.37;10.80;;;25.10;18.20;;;;;;2223063;62;20437;-63
2022/03/24 05:28:34;0.00;0.00;0.62;0.00;0.00;0.62;11.87;10.77;;;25.00;18.20;;;;;;2224022;62;20389;-62
2022/03/24 05:31:20;0.00;0.00;0.62;0.00;0.00;0.62;11.73;10.53;;;25.00;18.20;;;;;;2222599;62;20776;-61
2022/03/24 05:34:04;0.00;0.00;0.62;0.00;0.00;0.62;11.77;10.67;;;25.00;18.30;;;;;;2223715;62;20361;-64
2022/03/24 05:36:50;0.00;0.00;0.62;0.00;0.00;0.62;13.50;11.00;;;25.00;18.30;;;;;;2224119;62;20421;-60
2022/03/24 05:39:34;0.00;0.00;0.62;0.00;0.00;0.62;12.63;11.30;;;24.90;18.30;;;;;;2222267;62;20429;-63
2022/03/24 05:42:21;0.00;0.00;0.62;0.00;0.00;0.62;11.97;10.77;;;24.90;18.40;;;;;;2224190;62;20399;-62
2022/03/24 05:45:07;0.00;0.00;0.62;0.00;0.00;0.62;11.87;10.80;;;24.90;18.40;;;;;;2224068;62;20819;-61
2022/03/24 05:47:51;0.00;0.00;0.62;0.00;0.00;0.62;13.17;11.77;;;24.90;18.30;;;;;;2222848;62;20396;-60
2022/03/24 05:50:46;0.00;0.00;0.62;0.00;0.00;0.62;10.83;9.73;;;24.80;18.10;;;;;;2221562;62;20404;-60
2022/03/24 05:53:34;0.00;0.00;0.62;0.00;0.00;0.62;11.37;9.73;;;24.80;18.20;;;;;;2224237;62;20416;-60
2022/03/24 05:56:19;0.00;0.00;0.62;0.00;0.00;0.62;11.53;10.33;;;24.70;18.30;;;;;;2228071;62;20367;-59
2022/03/24 05:59:06;0.00;0.00;0.62;0.00;0.00;0.62;11.77;10.67;;;24.70;18.80;;;;;;2227847;62;20395;-61
2022/03/24 06:01:51;0.00;0.00;0.62;0.00;0.00;0.62;11.23;9.90;;;24.70;18.40;;;;;;2226412;62;20449;-63
2022/03/24 06:04:36;0.00;0.00;0.62;0.00;0.00;0.62;10.00;9.10;;;24.70;18.40;;;;;;2228004;62;20900;-61
2022/03/24 06:07:21;0.00;0.00;0.62;0.00;0.00;0.62;11.73;10.37;;;24.70;18.50;;;;;;2227036;62;20813;-61
2022/03/24 06:10:07;0.00;0.00;0.62;0.00;0.00;0.62;12.80;10.80;;;24.60;18.40;;;;;;2226885;62;20843;-61
2022/03/24 06:12:53;0.00;0.00;0.62;0.00;0.00;0.62;10.20;9.10;;;24.70;18.60;;;;;;2227925;62;20448;-62
2022/03/24 06:15:39;0.00;0.00;0.62;0.00;0.00;0.62;13.67;10.80;;;24.60;18.50;;;;;;2227037;62;20416;-58
2022/03/24 06:18:24;0.00;0.00;0.62;0.00;0.00;0.62;10.67;9.67;;;24.60;18.50;;;;;;2227625;62;20920;-59
2022/03/24 06:21:09;0.00;0.00;0.62;0.00;0.00;0.62;12.00;10.80;;;24.60;18.60;;;;;;2227955;62;20801;-56
2022/03/24 06:23:54;0.00;0.00;0.62;0.00;0.00;0.62;11.00;10.00;;;24.60;18.60;;;;;;2226338;62;21026;-56
2022/03/24 06:26:39;0.00;0.00;0.62;0.00;0.00;0.62;11.23;10.10;;;24.60;18.60;;;;;;2227258;62;20372;-60
2022/03/24 06:29:23;0.00;0.00;0.62;0.00;0.00;0.62;11.57;10.33;;;24.60;18.60;;;;;;2227845;62;20832;-62
2022/03/24 06:32:09;0.00;0.00;0.62;0.00;0.00;0.62;14.30;10.80;;;24.60;18.60;;;;;;2226570;62;20781;-56
2022/03/24 06:34:54;0.00;0.00;0.62;0.00;0.00;0.62;11.50;10.23;;;24.50;18.60;;;;;;2228015;62;20412;-59
2022/03/24 06:37:42;0.00;0.00;0.62;0.00;0.00;0.62;11.03;9.93;;;24.50;18.60;;;;;;2227498;62;20441;-56
2022/03/24 06:40:27;0.00;0.00;0.62;0.00;0.00;0.62;11.60;9.90;;;24.50;18.70;;;;;;2228082;62;20384;-60
2022/03/24 06:43:12;0.00;0.00;0.62;0.00;0.00;0.62;10.93;9.87;;;24.50;18.70;;;;;;2227951;62;20403;-59
2022/03/24 06:45:57;0.00;0.00;0.62;0.00;0.00;0.62;14.57;10.20;;;24.50;18.70;;;;;;2227023;62;20789;-56
2022/03/24 06:48:43;0.00;0.00;0.62;0.00;0.00;0.62;11.20;10.00;;;24.50;18.70;;;;;;2228379;62;20886;-59
2022/03/24 06:51:27;0.00;0.00;0.62;0.00;0.00;0.62;12.63;9.97;;;24.50;18.70;;;;;;2228747;62;20920;-60
2022/03/24 06:54:12;0.00;0.00;0.62;0.00;0.00;0.62;10.80;9.70;;;24.50;18.80;;;;;;2227021;62;20421;-58
2022/03/24 06:56:57;0.00;0.00;0.62;0.00;0.00;0.62;11.60;10.50;;;24.50;18.80;;;;;;2228382;62;20387;-61
2022/03/24 06:59:42;0.00;0.00;0.62;0.00;0.00;0.62;11.53;10.43;;;24.50;18.80;;;;;;2228167;62;20383;-54
2022/03/24 07:02:26;0.00;0.00;0.62;0.00;0.00;0.62;10.77;9.60;;;24.50;18.80;;;;;;2228004;62;20400;-57
2022/03/24 07:05:13;0.00;0.00;0.62;0.00;0.00;0.62;12.37;11.10;;;24.40;18.70;;;;;;2228597;62;20411;-59
2022/03/24 07:07:58;0.00;0.00;0.62;0.00;0.00;0.62;13.13;10.10;;;24.50;18.80;;;;;;2226593;62;20392;-60
2022/03/24 07:10:42;0.00;0.00;0.62;0.00;0.00;0.62;10.40;9.30;;;24.40;18.80;;;;;;2228596;62;20908;-57
2022/03/24 07:13:27;0.00;0.00;0.62;0.00;0.00;0.62;11.50;10.37;;;24.50;18.90;;;;;;2228520;62;21055;-59
2022/03/24 07:16:11;0.00;0.00;0.62;0.00;0.00;0.62;11.43;10.17;;;24.50;18.90;;;;;;2227152;62;20437;-58
2022/03/24 07:18:56;0.00;0.00;0.62;0.00;0.00;0.62;12.23;10.93;;;24.50;18.90;;;;;;2228464;62;20452;-58
2022/03/24 07:21:42;0.00;0.00;0.62;0.00;0.00;0.62;11.60;10.40;;;24.40;18.80;;;;;;2228256;62;20367;-61
2022/03/24 07:24:27;0.00;0.00;0.62;0.00;0.00;0.62;11.40;10.20;;;24.40;18.80;;;;;;2227582;62;20380;-60
2022/03/24 07:27:14;0.00;0.00;0.62;0.00;0.00;0.62;11.93;10.83;;;24.40;18.80;;;;;;2224945;62;20925;-60
2022/03/24 07:29:59;0.00;0.00;0.62;0.00;0.00;0.62;11.93;10.73;;;24.40;18.80;;;;;;2226153;62;20789;-61
2022/03/24 07:32:44;0.00;0.00;0.62;0.00;0.00;0.62;10.87;9.87;;;24.40;18.80;;;;;;2228501;62;20428;-58
2022/03/24 07:35:29;0.00;0.00;0.62;0.00;0.00;0.62;11.33;10.17;;;24.40;18.80;;;;;;2228461;62;20365;-59
2022/03/24 07:38:16;0.00;0.00;0.62;0.00;0.00;0.62;12.33;10.90;;;24.40;18.90;;;;;;2226816;62;20494;-60
2022/03/24 07:41:01;0.00;0.00;0.62;0.00;0.00;0.62;13.27;10.20;;;24.40;18.80;;;;;;2227901;62;20380;-61
2022/03/24 07:43:46;0.00;0.00;0.62;0.00;0.00;0.62;10.43;9.33;;;24.40;18.90;;;;;;2227645;62;20399;-60
2022/03/24 07:46:31;0.00;0.00;0.62;0.00;0.00;0.62;11.93;9.87;;;24.40;18.80;;;;;;2227350;62;20372;-60
2022/03/24 07:49:16;0.00;0.00;0.62;0.00;0.00;0.62;11.17;10.17;;;24.40;18.90;;;;;;2223697;62;20389;-59
2022/03/24 07:52:02;0.00;0.00;0.62;0.00;0.00;0.62;11.93;10.73;;;24.40;18.90;;;;;;2222956;62;20374;-60
2022/03/24 07:54:59;0.00;0.00;0.62;0.00;0.00;0.62;13.90;10.40;;;24.40;18.80;;;;;;2224426;62;20403;-61
2022/03/24 07:57:43;0.00;0.00;0.62;0.00;0.00;0.62;12.07;9.90;;;24.40;18.90;;;;;;2223866;62;20476;-53
2022/03/24 08:00:28;0.00;0.00;0.62;0.00;0.00;0.62;10.50;9.50;;;24.40;18.90;;;;;;2223023;62;20422;-51
2022/03/24 08:03:15;0.00;0.00;0.62;0.00;0.00;0.62;10.33;9.23;;;24.40;18.90;;;;;;2223359;62;20393;-53
2022/03/24 08:06:02;0.00;0.00;0.62;0.00;0.00;0.62;9.90;8.43;;;24.40;18.90;;;;;;2224076;62;20365;-51
2022/03/24 08:08:46;0.00;0.00;0.62;0.00;0.00;0.62;11.37;10.13;;;24.40;18.90;;;;;;2223397;62;20790;-56
2022/03/24 08:11:32;0.00;0.00;0.62;0.00;0.00;0.62;9.57;8.60;;;24.40;18.80;;;;;;2224572;62;20763;-53
2022/03/24 08:14:17;0.00;0.00;0.62;0.00;0.00;0.62;10.23;9.23;;;24.40;18.90;;;;;;2222821;62;20417;-54
2022/03/24 08:17:02;0.00;0.00;0.62;0.00;0.00;0.62;10.50;9.53;;;24.40;18.90;;;;;;2224021;62;20385;-57
2022/03/24 08:19:47;0.00;0.00;0.62;0.00;0.00;0.62;11.43;10.23;;;24.40;18.90;;;;;;2223756;62;20505;-51
2022/03/24 08:22:31;0.00;0.00;0.62;0.00;0.00;0.62;13.50;11.70;;;24.40;18.80;;;;;;2222477;62;20424;-51
2022/03/24 08:25:17;0.00;0.00;0.62;0.00;0.00;0.62;12.40;10.93;;;24.50;18.70;;;;;;2224028;62;20673;-51
2022/03/24 08:28:04;0.00;0.00;0.62;0.00;0.00;0.62;12.63;11.13;;;24.50;18.60;;;;;;2224119;62;20393;-51
2022/03/24 08:30:48;0.00;0.00;0.62;0.00;0.00;0.62;12.13;10.73;;;24.50;18.50;;;;;;2223160;62;20396;-57
2022/03/24 08:33:33;0.00;0.00;0.62;0.00;0.00;0.62;12.33;11.03;;;24.40;18.40;;;;;;2225641;62;20790;-55
2022/03/24 08:36:17;0.00;0.00;0.62;0.00;0.00;0.62;10.10;9.20;;;24.40;18.50;;;;;;2226674;62;20368;-56
2022/03/24 08:39:02;0.00;0.00;0.62;0.00;0.00;0.62;9.70;8.70;;;24.40;18.50;;;;;;2228315;62;20436;-52
2022/03/24 08:41:47;0.00;0.00;0.62;0.00;0.00;0.62;10.93;9.83;;;24.40;18.50;;;;;;2227764;62;20501;-52
2022/03/24 08:44:33;0.00;0.00;0.62;0.00;0.00;0.62;10.83;9.70;;;24.40;18.60;;;;;;2226246;62;20490;-58
2022/03/24 08:47:17;0.00;0.00;0.62;0.00;0.00;0.62;13.00;11.67;;;24.40;18.70;;;;;;2226784;62;20408;-55
2022/03/24 08:50:03;0.00;0.00;0.62;0.00;0.00;0.62;10.67;9.27;;;24.50;18.70;;;;;;2227056;62;20787;-55
2022/03/24 08:52:48;0.00;0.00;0.62;0.00;0.00;0.62;11.97;10.63;;;24.50;19.30;;;;;;2222861;62;20369;-52
2022/03/24 08:55:34;0.00;0.00;0.62;0.00;0.00;0.62;11.00;9.87;;;24.50;18.80;;;;;;2223943;62;20393;-56
2022/03/24 08:58:20;0.00;0.00;0.62;0.00;0.00;0.62;10.50;9.50;;;24.50;18.80;;;;;;2227747;62;20415;-55
2022/03/24 09:01:06;0.00;0.00;0.62;0.00;0.00;0.62;11.47;10.20;;;24.50;18.70;;;;;;2228034;62;20381;-52
2022/03/24 09:03:51;0.00;0.00;0.62;0.00;0.00;0.62;12.20;10.90;;;24.50;18.70;;;;;;2228359;62;20431;-56
2022/03/24 09:06:36;0.00;0.00;0.62;0.00;0.00;0.62;12.00;9.87;;;24.60;18.80;;;;;;2226423;62;20372;-56
2022/03/24 09:09:24;0.00;0.00;0.62;0.00;0.00;0.62;13.00;10.37;;;24.60;18.80;;;;;;2228090;62;20481;-54
2022/03/24 09:12:10;0.00;0.00;0.62;0.00;0.00;0.62;10.47;9.33;;;24.60;18.80;;;;;;2228350;62;20424;-57
2022/03/24 09:14:54;0.00;0.00;0.62;0.00;0.00;0.62;11.43;9.63;;;24.60;18.80;;;;;;2226884;62;20455;-54
2022/03/24 09:17:41;0.00;0.00;0.62;0.00;0.00;0.62;9.63;8.63;;;24.60;18.80;;;;;;2225266;62;20400;-48
2022/03/24 09:20:26;0.00;0.00;0.62;0.00;0.00;0.62;10.90;9.83;;;24.60;18.90;;;;;;2223868;62;20402;-50
2022/03/24 09:23:11;0.00;0.00;0.62;0.00;0.00;0.62;10.97;9.87;;;24.60;18.90;;;;;;2224089;62;20449;-53
2022/03/24 09:25:56;0.00;0.00;0.62;0.00;0.00;0.62;10.93;9.73;;;24.70;18.90;;;;;;2223853;62;20505;-58
2022/03/24 09:28:41;0.00;0.00;0.62;0.00;0.00;0.62;10.87;9.87;;;24.70;18.90;;;;;;2225238;62;20825;-55
2022/03/24 09:31:25;0.00;0.00;0.62;0.00;0.00;0.62;10.30;9.30;;;24.70;18.90;;;;;;2227864;62;20372;-56
2022/03/24 09:34:11;0.00;0.00;0.62;0.00;0.00;0.62;12.40;10.10;;;24.70;18.90;;;;;;2228119;62;20417;-57
2022/03/24 09:36:56;0.00;0.00;0.62;0.00;0.00;0.62;10.63;8.83;;;24.70;18.90;;;;;;2226710;62;20380;-53
2022/03/24 09:39:40;0.00;0.00;0.62;0.00;0.00;0.62;12.23;9.77;;;24.70;18.90;;;;;;2227983;62;20437;-49
2022/03/24 09:42:26;0.00;0.00;0.62;0.00;0.00;0.62;12.30;10.27;;;24.70;18.90;;;;;;2227551;62;20395;-60
2022/03/24 09:45:13;0.00;0.00;0.62;0.00;0.00;0.62;11.00;9.97;;;24.80;19.00;;;;;;2226187;62;20953;-58
2022/03/24 09:47:58;0.00;0.00;0.62;0.00;0.00;0.62;10.20;7.87;;;24.80;19.00;;;;;;2228306;62;20387;-56
2022/03/24 09:50:45;0.00;0.00;0.62;0.00;0.00;0.62;10.20;8.80;;;24.80;19.00;;;;;;2223672;62;20433;-50
2022/03/24 09:53:30;0.00;0.00;0.62;0.00;0.00;0.62;11.17;10.03;;;24.80;19.00;;;;;;2228334;62;20373;-59
2022/03/24 09:56:14;0.00;0.00;0.62;0.00;0.00;0.62;13.47;8.97;;;24.80;19.00;;;;;;2227887;62;20909;-52
2022/03/24 09:58:59;0.00;0.00;0.62;0.00;0.00;0.62;8.50;7.60;;;24.90;19.10;;;;;;2222863;62;20538;-50
2022/03/24 10:01:44;0.00;0.00;0.62;0.00;0.00;0.62;8.57;7.73;;;24.90;19.20;;;;;;2224174;62;20365;-53
2022/03/24 10:04:44;0.00;0.00;0.62;0.00;0.00;0.62;9.80;8.60;;;24.90;19.10;;;;;;2223658;62;20364;-56
2022/03/24 10:07:45;0.00;0.00;0.62;0.00;0.00;0.62;9.17;7.80;;;25.00;19.30;;;;;;2223933;62;20975;-54
2022/03/24 10:10:33;0.00;0.00;0.62;0.00;0.00;0.62;9.10;7.73;;;25.00;19.30;;;;;;2224171;62;20542;-56
2022/03/24 10:13:25;0.00;0.00;0.62;0.00;0.00;0.62;9.53;7.50;;;25.00;19.30;;;;;;2222581;62;20422;-54
2022/03/24 10:16:13;0.00;0.00;0.62;0.00;0.00;0.62;7.80;7.00;;;25.00;19.40;;;;;;2565674;46;20365;-52
2022/03/24 10:19:01;0.00;0.00;0.62;0.00;0.00;0.62;7.83;7.03;;;25.10;19.40;;;;;;2223867;62;20426;-52
2022/03/24 10:21:49;0.00;0.00;0.62;0.00;0.00;0.62;6.90;6.20;;;25.10;19.50;;;;;;2221848;62;20910;-53
2022/03/24 10:24:40;0.00;0.00;0.62;0.00;0.00;0.62;7.70;6.27;;;25.10;19.50;;;;;;2342226;46;20441;-56
2022/03/24 10:27:27;0.00;0.00;0.62;0.00;0.00;0.62;8.17;6.40;;;25.20;19.60;;;;;;2225368;62;20449;-55
2022/03/24 10:30:12;0.00;0.00;0.62;0.00;0.00;0.62;7.27;6.13;;;25.20;19.70;;;;;;2228049;62;20407;-54
2022/03/24 10:32:57;0.00;0.00;0.62;0.00;0.00;0.62;7.77;6.37;;;25.20;19.70;;;;;;2223615;62;20398;-60
2022/03/24 10:35:46;0.00;0.00;0.62;0.00;0.00;0.62;6.57;5.97;;;25.20;19.70;;;;;;2220079;62;20720;-58
2022/03/24 10:38:32;0.00;0.00;0.62;0.00;0.00;0.62;5.50;4.90;;;25.30;19.80;;;;;;2221913;62;20392;-57
2022/03/24 10:41:21;0.00;0.00;0.62;0.00;0.00;0.62;6.80;6.10;;;25.30;19.80;;;;;;2224090;62;20388;-58
2022/03/24 10:44:09;0.00;0.00;0.62;0.00;0.00;0.62;5.90;5.20;;;25.40;19.90;;;;;;2224268;62;20932;-62
2022/03/24 10:46:54;0.00;0.00;0.62;0.00;0.00;0.62;7.07;6.03;;;25.40;20.00;;;;;;2228188;62;20377;-58
2022/03/24 10:49:39;0.00;0.00;0.62;0.00;0.00;0.62;7.00;5.60;;;25.40;20.00;;;;;;2223306;62;20416;-57
2022/03/24 10:52:23;0.00;0.00;0.62;0.00;0.00;0.62;7.00;6.30;;;25.50;20.10;;;;;;2224227;62;20373;-56